sensor_id;sensor_type;location;lat;lon;timestamp;temperature;humidity
23520;DHT22;11936;50.820;4.336;2023-12-20T00:00:25;8.60;99.90
23520;DHT22;11936;50.820;4.336;2023-12-20T00:02:51;8.50;99.90
23520;DHT22;11936;50.820;4.336;2023-12-20T00:05:16;8.50;99.90
23520;DHT22;11936;50.820;4.336;2023-12-20T00:07:42;8.30;99.90
23520;DHT22;11936;50.820;4.336;2023-12-20T00:10:08;8.30;99.90
23520;DHT22;11936;50.820;4.336;2023-12-20T00:12:34;8.20;99.90
23520;DHT22;11936;50.820;4.336;2023-12-20T00:15:00;8.30;99.90
23520;DHT22;11936;50.820;4.336;2023-12-20T00:17:25;8.20;99.90
23520;DHT22;11936;50.820;4.336;2023-12-20T00:19:51;8.30;99.90
23520;DHT22;11936;50.820;4.336;2023-12-20T00:22:16;8.30;99.90
23520;DHT22;11936;50.820;4.336;2023-12-20T00:24:42;8.10;99.90
23520;DHT22;11936;50.820;4.336;2023-12-20T00:27:08;8.20;99.90
23520;DHT22;11936;50.820;4.336;2023-12-20T00:29:33;8.30;99.90
23520;DHT22;11936;50.820;4.336;2023-12-20T00:31:59;8.30;99.90
23520;DHT22;11936;50.820;4.336;2023-12-20T00:34:24;8.10;99.90
23520;DHT22;11936;50.820;4.336;2023-12-20T00:36:50;8.20;99.90
23520;DHT22;11936;50.820;4.336;2023-12-20T00:39:16;8.20;99.90
23520;DHT22;11936;50.820;4.336;2023-12-20T00:41:41;8.10;99.90
23520;DHT22;11936;50.820;4.336;2023-12-20T00:44:07;8.20;99.90
23520;DHT22;11936;50.820;4.336;2023-12-20T00:46:33;8.10;99.90
23520;DHT22;11936;50.820;4.336;2023-12-20T00:48:58;8.20;99.90
23520;DHT22;11936;50.820;4.336;2023-12-20T00:51:24;8.10;99.90
23520;DHT22;11936;50.820;4.336;2023-12-20T00:53:50;7.90;99.90
23520;DHT22;11936;50.820;4.336;2023-12-20T00:56:20;8.10;99.90
23520;DHT22;11936;50.820;4.336;2023-12-20T00:58:45;8.00;99.90
23520;DHT22;11936;50.820;4.336;2023-12-20T01:01:11;8.10;99.90
23520;DHT22;11936;50.820;4.336;2023-12-20T01:03:37;8.00;99.90
23520;DHT22;11936;50.820;4.336;2023-12-20T01:06:02;7.90;99.90
23520;DHT22;11936;50.820;4.336;2023-12-20T01:08:30;7.90;99.90
23520;DHT22;11936;50.820;4.336;2023-12-20T01:10:55;7.90;99.90
23520;DHT22;11936;50.820;4.336;2023-12-20T01:13:21;7.90;99.90
23520;DHT22;11936;50.820;4.336;2023-12-20T01:15:46;7.90;99.90
23520;DHT22;11936;50.820;4.336;2023-12-20T01:18:13;7.90;99.90
23520;DHT22;11936;50.820;4.336;2023-12-20T01:20:39;7.70;99.90
23520;DHT22;11936;50.820;4.336;2023-12-20T01:23:05;7.60;99.90
23520;DHT22;11936;50.820;4.336;2023-12-20T01:25:30;7.60;99.90
23520;DHT22;11936;50.820;4.336;2023-12-20T01:27:56;7.70;99.90
23520;DHT22;11936;50.820;4.336;2023-12-20T01:30:21;7.80;99.90
23520;DHT22;11936;50.820;4.336;2023-12-20T01:32:47;7.90;99.90
23520;DHT22;11936;50.820;4.336;2023-12-20T01:35:13;7.90;99.90
23520;DHT22;11936;50.820;4.336;2023-12-20T01:37:38;7.80;99.90
23520;DHT22;11936;50.820;4.336;2023-12-20T01:40:05;7.80;99.90
23520;DHT22;11936;50.820;4.336;2023-12-20T01:42:31;7.80;99.90
23520;DHT22;11936;50.820;4.336;2023-12-20T01:44:56;7.80;99.90
23520;DHT22;11936;50.820;4.336;2023-12-20T01:47:22;7.90;99.90
23520;DHT22;11936;50.820;4.336;2023-12-20T01:49:49;8.00;99.90
23520;DHT22;11936;50.820;4.336;2023-12-20T01:52:15;7.70;99.90
23520;DHT22;11936;50.820;4.336;2023-12-20T01:54:42;7.60;99.90
23520;DHT22;11936;50.820;4.336;2023-12-20T01:57:08;7.60;99.90
23520;DHT22;11936;50.820;4.336;2023-12-20T01:59:34;7.50;99.90
23520;DHT22;11936;50.820;4.336;2023-12-20T02:02:00;7.30;99.90
23520;DHT22;11936;50.820;4.336;2023-12-20T02:04:27;7.40;99.90
23520;DHT22;11936;50.820;4.336;2023-12-20T02:06:53;7.50;99.90
23520;DHT22;11936;50.820;4.336;2023-12-20T02:09:21;7.60;99.90
23520;DHT22;11936;50.820;4.336;2023-12-20T02:11:48;7.70;99.90
23520;DHT22;11936;50.820;4.336;2023-12-20T02:14:14;7.80;99.90
23520;DHT22;11936;50.820;4.336;2023-12-20T02:16:40;7.90;99.90
23520;DHT22;11936;50.820;4.336;2023-12-20T02:19:09;7.80;99.90
23520;DHT22;11936;50.820;4.336;2023-12-20T02:21:38;7.60;99.90
23520;DHT22;11936;50.820;4.336;2023-12-20T02:24:04;7.60;99.90
23520;DHT22;11936;50.820;4.336;2023-12-20T02:26:30;7.50;99.90
23520;DHT22;11936;50.820;4.336;2023-12-20T02:28:57;7.40;99.90
23520;DHT22;11936;50.820;4.336;2023-12-20T02:31:23;7.30;99.90
23520;DHT22;11936;50.820;4.336;2023-12-20T02:33:49;7.30;99.90
23520;DHT22;11936;50.820;4.336;2023-12-20T02:36:15;7.30;99.90
23520;DHT22;11936;50.820;4.336;2023-12-20T02:38:40;7.30;99.90
23520;DHT22;11936;50.820;4.336;2023-12-20T02:41:06;7.30;99.90
23520;DHT22;11936;50.820;4.336;2023-12-20T02:43:32;7.30;99.90
23520;DHT22;11936;50.820;4.336;2023-12-20T02:45:57;7.30;99.90
23520;DHT22;11936;50.820;4.336;2023-12-20T02:48:23;7.30;99.90
23520;DHT22;11936;50.820;4.336;2023-12-20T02:50:48;7.50;99.90
23520;DHT22;11936;50.820;4.336;2023-12-20T02:53:14;7.50;99.90
23520;DHT22;11936;50.820;4.336;2023-12-20T02:55:40;7.30;99.90
23520;DHT22;11936;50.820;4.336;2023-12-20T02:58:06;7.40;99.90
23520;DHT22;11936;50.820;4.336;2023-12-20T03:00:31;7.40;99.90
23520;DHT22;11936;50.820;4.336;2023-12-20T03:02:57;7.40;99.90
23520;DHT22;11936;50.820;4.336;2023-12-20T03:05:25;7.20;99.90
23520;DHT22;11936;50.820;4.336;2023-12-20T03:07:50;7.40;99.90
23520;DHT22;11936;50.820;4.336;2023-12-20T03:10:17;7.30;99.90
23520;DHT22;11936;50.820;4.336;2023-12-20T03:12:43;7.60;99.90
23520;DHT22;11936;50.820;4.336;2023-12-20T03:15:09;7.30;99.90
23520;DHT22;11936;50.820;4.336;2023-12-20T03:17:35;7.20;99.90
23520;DHT22;11936;50.820;4.336;2023-12-20T03:20:00;7.30;99.90
23520;DHT22;11936;50.820;4.336;2023-12-20T03:22:26;7.40;99.90
23520;DHT22;11936;50.820;4.336;2023-12-20T03:24:51;7.50;99.90
23520;DHT22;11936;50.820;4.336;2023-12-20T03:27:17;7.30;99.90
23520;DHT22;11936;50.820;4.336;2023-12-20T03:29:43;7.40;99.90
23520;DHT22;11936;50.820;4.336;2023-12-20T03:32:08;7.50;99.90
23520;DHT22;11936;50.820;4.336;2023-12-20T03:34:34;7.40;99.90
23520;DHT22;11936;50.820;4.336;2023-12-20T03:37:00;7.40;99.90
23520;DHT22;11936;50.820;4.336;2023-12-20T03:39:25;7.60;99.90
23520;DHT22;11936;50.820;4.336;2023-12-20T03:41:51;7.80;99.90
23520;DHT22;11936;50.820;4.336;2023-12-20T03:44:16;7.70;99.90
23520;DHT22;11936;50.820;4.336;2023-12-20T03:46:42;7.80;99.90
23520;DHT22;11936;50.820;4.336;2023-12-20T03:49:08;7.70;99.90
23520;DHT22;11936;50.820;4.336;2023-12-20T03:51:33;7.80;99.90
23520;DHT22;11936;50.820;4.336;2023-12-20T03:53:59;7.70;99.90
23520;DHT22;11936;50.820;4.336;2023-12-20T03:56:24;7.50;99.90
23520;DHT22;11936;50.820;4.336;2023-12-20T03:58:50;7.50;99.90
23520;DHT22;11936;50.820;4.336;2023-12-20T04:01:15;7.70;99.90
23520;DHT22;11936;50.820;4.336;2023-12-20T04:03:41;7.60;99.90
23520;DHT22;11936;50.820;4.336;2023-12-20T04:06:07;7.60;99.90
23520;DHT22;11936;50.820;4.336;2023-12-20T04:08:32;7.50;99.90
23520;DHT22;11936;50.820;4.336;2023-12-20T04:10:58;7.50;99.90
23520;DHT22;11936;50.820;4.336;2023-12-20T04:13:24;7.40;99.90
23520;DHT22;11936;50.820;4.336;2023-12-20T04:15:49;7.50;99.90
23520;DHT22;11936;50.820;4.336;2023-12-20T04:18:16;7.50;99.90
23520;DHT22;11936;50.820;4.336;2023-12-20T04:20:42;7.60;99.90
23520;DHT22;11936;50.820;4.336;2023-12-20T04:23:07;7.70;99.90
23520;DHT22;11936;50.820;4.336;2023-12-20T04:25:33;7.70;99.90
23520;DHT22;11936;50.820;4.336;2023-12-20T04:27:58;7.50;99.90
23520;DHT22;11936;50.820;4.336;2023-12-20T04:30:24;7.30;99.90
23520;DHT22;11936;50.820;4.336;2023-12-20T04:32:49;7.30;99.90
23520;DHT22;11936;50.820;4.336;2023-12-20T04:35:15;7.30;99.90
23520;DHT22;11936;50.820;4.336;2023-12-20T04:37:41;7.30;99.90
23520;DHT22;11936;50.820;4.336;2023-12-20T04:40:07;7.50;99.90
23520;DHT22;11936;50.820;4.336;2023-12-20T04:42:36;7.30;99.90
23520;DHT22;11936;50.820;4.336;2023-12-20T04:45:02;7.20;99.90
23520;DHT22;11936;50.820;4.336;2023-12-20T04:47:28;7.30;99.90
23520;DHT22;11936;50.820;4.336;2023-12-20T04:49:54;7.30;99.90
23520;DHT22;11936;50.820;4.336;2023-12-20T04:52:19;7.40;99.90
23520;DHT22;11936;50.820;4.336;2023-12-20T04:54:45;7.50;99.90
23520;DHT22;11936;50.820;4.336;2023-12-20T04:57:11;7.60;99.90
23520;DHT22;11936;50.820;4.336;2023-12-20T04:59:36;7.50;99.90
23520;DHT22;11936;50.820;4.336;2023-12-20T05:02:02;7.30;99.90
23520;DHT22;11936;50.820;4.336;2023-12-20T05:04:28;7.30;99.90
23520;DHT22;11936;50.820;4.336;2023-12-20T05:06:53;7.40;99.90
23520;DHT22;11936;50.820;4.336;2023-12-20T05:09:19;7.30;99.90
23520;DHT22;11936;50.820;4.336;2023-12-20T05:11:44;7.50;99.90
23520;DHT22;11936;50.820;4.336;2023-12-20T05:14:10;7.40;99.90
23520;DHT22;11936;50.820;4.336;2023-12-20T05:16:36;7.40;99.90
23520;DHT22;11936;50.820;4.336;2023-12-20T05:19:01;7.60;99.90
23520;DHT22;11936;50.820;4.336;2023-12-20T05:21:32;7.60;99.90
23520;DHT22;11936;50.820;4.336;2023-12-20T05:23:57;7.80;99.90
23520;DHT22;11936;50.820;4.336;2023-12-20T05:26:23;7.60;99.90
23520;DHT22;11936;50.820;4.336;2023-12-20T05:28:48;7.60;99.90
23520;DHT22;11936;50.820;4.336;2023-12-20T05:31:17;7.50;99.90
23520;DHT22;11936;50.820;4.336;2023-12-20T05:33:43;7.50;99.90
23520;DHT22;11936;50.820;4.336;2023-12-20T05:36:08;7.30;99.90
23520;DHT22;11936;50.820;4.336;2023-12-20T05:38:37;7.00;99.90
23520;DHT22;11936;50.820;4.336;2023-12-20T05:41:02;7.00;99.90
23520;DHT22;11936;50.820;4.336;2023-12-20T05:43:29;6.90;99.90
23520;DHT22;11936;50.820;4.336;2023-12-20T05:45:54;7.00;99.90
23520;DHT22;11936;50.820;4.336;2023-12-20T05:48:20;7.00;99.90
23520;DHT22;11936;50.820;4.336;2023-12-20T05:50:45;7.00;99.90
23520;DHT22;11936;50.820;4.336;2023-12-20T05:53:11;7.00;99.90
23520;DHT22;11936;50.820;4.336;2023-12-20T05:55:37;6.90;99.90
23520;DHT22;11936;50.820;4.336;2023-12-20T05:58:02;6.90;99.90
23520;DHT22;11936;50.820;4.336;2023-12-20T06:00:28;6.80;99.90
23520;DHT22;11936;50.820;4.336;2023-12-20T06:02:54;7.00;99.90
23520;DHT22;11936;50.820;4.336;2023-12-20T06:05:20;6.80;99.90
23520;DHT22;11936;50.820;4.336;2023-12-20T06:07:45;7.00;99.90
23520;DHT22;11936;50.820;4.336;2023-12-20T06:10:13;6.90;99.90
23520;DHT22;11936;50.820;4.336;2023-12-20T06:12:39;6.80;99.90
23520;DHT22;11936;50.820;4.336;2023-12-20T06:15:06;7.00;99.90
23520;DHT22;11936;50.820;4.336;2023-12-20T06:17:31;7.10;99.90
23520;DHT22;11936;50.820;4.336;2023-12-20T06:19:57;7.00;99.90
23520;DHT22;11936;50.820;4.336;2023-12-20T06:22:23;7.10;99.90
23520;DHT22;11936;50.820;4.336;2023-12-20T06:24:48;7.10;99.90
23520;DHT22;11936;50.820;4.336;2023-12-20T06:27:14;7.00;99.90
23520;DHT22;11936;50.820;4.336;2023-12-20T06:29:40;7.00;99.90
23520;DHT22;11936;50.820;4.336;2023-12-20T06:32:06;7.10;99.90
23520;DHT22;11936;50.820;4.336;2023-12-20T06:34:32;7.10;99.90
23520;DHT22;11936;50.820;4.336;2023-12-20T06:36:58;7.10;99.90
23520;DHT22;11936;50.820;4.336;2023-12-20T06:39:24;7.10;99.90
23520;DHT22;11936;50.820;4.336;2023-12-20T06:41:49;6.90;99.90
23520;DHT22;11936;50.820;4.336;2023-12-20T06:44:15;6.70;99.90
23520;DHT22;11936;50.820;4.336;2023-12-20T06:46:41;6.60;99.90
23520;DHT22;11936;50.820;4.336;2023-12-20T06:49:06;6.70;99.90
23520;DHT22;11936;50.820;4.336;2023-12-20T06:51:32;6.70;99.90
23520;DHT22;11936;50.820;4.336;2023-12-20T06:53:57;6.60;99.90
23520;DHT22;11936;50.820;4.336;2023-12-20T06:56:23;6.80;99.90
23520;DHT22;11936;50.820;4.336;2023-12-20T06:58:49;6.80;99.90
23520;DHT22;11936;50.820;4.336;2023-12-20T07:01:15;6.70;99.90
23520;DHT22;11936;50.820;4.336;2023-12-20T07:03:41;6.70;99.90
23520;DHT22;11936;50.820;4.336;2023-12-20T07:06:07;6.80;99.90
23520;DHT22;11936;50.820;4.336;2023-12-20T07:08:33;7.00;99.90
23520;DHT22;11936;50.820;4.336;2023-12-20T07:11:01;6.80;99.90
23520;DHT22;11936;50.820;4.336;2023-12-20T07:13:26;6.70;99.90
23520;DHT22;11936;50.820;4.336;2023-12-20T07:15:52;6.70;99.90
23520;DHT22;11936;50.820;4.336;2023-12-20T07:18:18;6.60;99.90
23520;DHT22;11936;50.820;4.336;2023-12-20T07:20:43;6.80;99.90
23520;DHT22;11936;50.820;4.336;2023-12-20T07:23:09;7.00;99.90
23520;DHT22;11936;50.820;4.336;2023-12-20T07:25:34;7.10;99.90
23520;DHT22;11936;50.820;4.336;2023-12-20T07:28:00;7.00;99.90
23520;DHT22;11936;50.820;4.336;2023-12-20T07:30:26;6.90;99.90
23520;DHT22;11936;50.820;4.336;2023-12-20T07:32:51;6.90;99.90
23520;DHT22;11936;50.820;4.336;2023-12-20T07:35:17;7.00;99.90
23520;DHT22;11936;50.820;4.336;2023-12-20T07:37:43;7.10;99.90
23520;DHT22;11936;50.820;4.336;2023-12-20T07:40:09;6.80;99.90
23520;DHT22;11936;50.820;4.336;2023-12-20T07:42:35;6.70;99.90
23520;DHT22;11936;50.820;4.336;2023-12-20T07:45:01;6.60;99.90
23520;DHT22;11936;50.820;4.336;2023-12-20T07:47:26;6.60;99.90
23520;DHT22;11936;50.820;4.336;2023-12-20T07:49:55;6.30;99.90
23520;DHT22;11936;50.820;4.336;2023-12-20T07:52:20;6.50;99.90
23520;DHT22;11936;50.820;4.336;2023-12-20T07:54:48;6.60;99.90
23520;DHT22;11936;50.820;4.336;2023-12-20T07:57:13;6.80;99.90
23520;DHT22;11936;50.820;4.336;2023-12-20T07:59:39;7.00;99.90
23520;DHT22;11936;50.820;4.336;2023-12-20T08:02:05;7.00;99.90
23520;DHT22;11936;50.820;4.336;2023-12-20T08:04:31;7.00;99.90
23520;DHT22;11936;50.820;4.336;2023-12-20T08:06:56;7.10;99.90
23520;DHT22;11936;50.820;4.336;2023-12-20T08:09:22;7.10;99.90
23520;DHT22;11936;50.820;4.336;2023-12-20T08:11:48;7.20;99.90
23520;DHT22;11936;50.820;4.336;2023-12-20T08:14:15;7.00;99.90
23520;DHT22;11936;50.820;4.336;2023-12-20T08:16:40;7.20;99.90
23520;DHT22;11936;50.820;4.336;2023-12-20T08:19:06;7.30;99.90
23520;DHT22;11936;50.820;4.336;2023-12-20T08:21:32;7.40;99.90
23520;DHT22;11936;50.820;4.336;2023-12-20T08:23:57;7.50;99.90
23520;DHT22;11936;50.820;4.336;2023-12-20T08:26:23;7.40;99.90
23520;DHT22;11936;50.820;4.336;2023-12-20T08:28:49;7.40;99.90
23520;DHT22;11936;50.820;4.336;2023-12-20T08:31:16;7.40;99.90
23520;DHT22;11936;50.820;4.336;2023-12-20T08:33:46;7.50;99.90
23520;DHT22;11936;50.820;4.336;2023-12-20T08:36:13;7.40;99.90
23520;DHT22;11936;50.820;4.336;2023-12-20T08:38:39;7.40;99.90
23520;DHT22;11936;50.820;4.336;2023-12-20T08:41:06;7.30;99.90
23520;DHT22;11936;50.820;4.336;2023-12-20T08:43:34;7.30;99.90
23520;DHT22;11936;50.820;4.336;2023-12-20T08:46:00;7.30;99.90
23520;DHT22;11936;50.820;4.336;2023-12-20T08:48:26;7.30;99.90
23520;DHT22;11936;50.820;4.336;2023-12-20T08:50:52;7.10;99.90
23520;DHT22;11936;50.820;4.336;2023-12-20T08:53:19;6.90;99.90
23520;DHT22;11936;50.820;4.336;2023-12-20T08:55:45;6.90;99.90
23520;DHT22;11936;50.820;4.336;2023-12-20T08:58:11;6.90;99.90
23520;DHT22;11936;50.820;4.336;2023-12-20T09:00:36;6.70;99.90
23520;DHT22;11936;50.820;4.336;2023-12-20T09:03:02;6.80;99.90
23520;DHT22;11936;50.820;4.336;2023-12-20T09:05:28;6.90;99.90
23520;DHT22;11936;50.820;4.336;2023-12-20T09:07:54;6.80;99.90
23520;DHT22;11936;50.820;4.336;2023-12-20T09:10:19;6.70;99.90
23520;DHT22;11936;50.820;4.336;2023-12-20T09:12:54;6.70;99.90
23520;DHT22;11936;50.820;4.336;2023-12-20T09:15:26;6.60;99.90
23520;DHT22;11936;50.820;4.336;2023-12-20T09:17:53;6.60;99.90
23520;DHT22;11936;50.820;4.336;2023-12-20T09:20:19;6.70;99.90
23520;DHT22;11936;50.820;4.336;2023-12-20T09:22:44;6.50;99.90
23520;DHT22;11936;50.820;4.336;2023-12-20T09:25:10;6.70;99.90
23520;DHT22;11936;50.820;4.336;2023-12-20T09:27:37;6.60;99.90
23520;DHT22;11936;50.820;4.336;2023-12-20T09:30:02;6.60;99.90
23520;DHT22;11936;50.820;4.336;2023-12-20T09:32:30;6.80;99.90
23520;DHT22;11936;50.820;4.336;2023-12-20T09:34:56;6.70;99.90
23520;DHT22;11936;50.820;4.336;2023-12-20T09:37:22;6.90;99.90
23520;DHT22;11936;50.820;4.336;2023-12-20T09:39:47;6.80;99.90
23520;DHT22;11936;50.820;4.336;2023-12-20T09:42:18;7.00;99.90
23520;DHT22;11936;50.820;4.336;2023-12-20T09:44:47;7.00;99.90
23520;DHT22;11936;50.820;4.336;2023-12-20T09:47:14;7.00;99.90
23520;DHT22;11936;50.820;4.336;2023-12-20T09:49:41;7.00;99.90
23520;DHT22;11936;50.820;4.336;2023-12-20T09:52:09;7.10;99.90
23520;DHT22;11936;50.820;4.336;2023-12-20T09:54:36;7.10;99.90
23520;DHT22;11936;50.820;4.336;2023-12-20T09:57:02;7.10;99.90
23520;DHT22;11936;50.820;4.336;2023-12-20T09:59:28;7.10;99.90
23520;DHT22;11936;50.820;4.336;2023-12-20T10:01:55;7.00;99.90
23520;DHT22;11936;50.820;4.336;2023-12-20T10:04:22;7.10;99.90
23520;DHT22;11936;50.820;4.336;2023-12-20T10:06:47;7.20;99.90
23520;DHT22;11936;50.820;4.336;2023-12-20T10:09:13;7.30;99.90
23520;DHT22;11936;50.820;4.336;2023-12-20T10:11:40;7.30;99.90
23520;DHT22;11936;50.820;4.336;2023-12-20T10:14:07;7.30;99.90
23520;DHT22;11936;50.820;4.336;2023-12-20T10:16:33;7.40;99.90
23520;DHT22;11936;50.820;4.336;2023-12-20T10:19:00;7.30;99.90
23520;DHT22;11936;50.820;4.336;2023-12-20T10:21:27;7.30;99.90
23520;DHT22;11936;50.820;4.336;2023-12-20T10:23:54;7.30;99.90
23520;DHT22;11936;50.820;4.336;2023-12-20T10:26:27;7.40;99.90
23520;DHT22;11936;50.820;4.336;2023-12-20T10:28:55;7.60;99.90
23520;DHT22;11936;50.820;4.336;2023-12-20T10:31:30;7.70;99.90
23520;DHT22;11936;50.820;4.336;2023-12-20T10:33:57;7.70;99.90
23520;DHT22;11936;50.820;4.336;2023-12-20T10:36:25;7.80;99.90
23520;DHT22;11936;50.820;4.336;2023-12-20T10:38:52;7.80;99.90
23520;DHT22;11936;50.820;4.336;2023-12-20T10:41:28;8.00;99.90
23520;DHT22;11936;50.820;4.336;2023-12-20T10:44:04;8.10;99.90
23520;DHT22;11936;50.820;4.336;2023-12-20T10:46:33;8.00;99.90
23520;DHT22;11936;50.820;4.336;2023-12-20T10:48:59;8.10;99.90
23520;DHT22;11936;50.820;4.336;2023-12-20T10:51:27;8.10;99.90
23520;DHT22;11936;50.820;4.336;2023-12-20T10:53:55;8.20;99.90
23520;DHT22;11936;50.820;4.336;2023-12-20T10:56:21;8.10;99.90
23520;DHT22;11936;50.820;4.336;2023-12-20T10:58:49;8.30;99.90
23520;DHT22;11936;50.820;4.336;2023-12-20T11:01:18;8.20;99.90
23520;DHT22;11936;50.820;4.336;2023-12-20T11:03:53;8.30;99.90
23520;DHT22;11936;50.820;4.336;2023-12-20T11:06:46;8.20;99.90
23520;DHT22;11936;50.820;4.336;2023-12-20T11:09:29;8.30;99.90
23520;DHT22;11936;50.820;4.336;2023-12-20T11:14:50;8.20;99.90
23520;DHT22;11936;50.820;4.336;2023-12-20T11:17:14;8.20;99.90
23520;DHT22;11936;50.820;4.336;2023-12-20T11:22:24;8.40;99.90
23520;DHT22;11936;50.820;4.336;2023-12-20T11:24:51;8.40;99.90
23520;DHT22;11936;50.820;4.336;2023-12-20T11:27:19;8.40;99.90
23520;DHT22;11936;50.820;4.336;2023-12-20T11:29:58;8.40;99.90
23520;DHT22;11936;50.820;4.336;2023-12-20T11:35:00;8.50;99.90
23520;DHT22;11936;50.820;4.336;2023-12-20T11:37:30;8.40;99.90
23520;DHT22;11936;50.820;4.336;2023-12-20T11:40:11;8.50;99.90
23520;DHT22;11936;50.820;4.336;2023-12-20T11:42:45;8.70;99.90
23520;DHT22;11936;50.820;4.336;2023-12-20T11:45:14;8.70;99.90
23520;DHT22;11936;50.820;4.336;2023-12-20T11:47:42;8.60;99.90
23520;DHT22;11936;50.820;4.336;2023-12-20T11:50:09;8.50;99.90
23520;DHT22;11936;50.820;4.336;2023-12-20T11:52:35;8.50;99.90
23520;DHT22;11936;50.820;4.336;2023-12-20T11:55:00;8.50;99.90
23520;DHT22;11936;50.820;4.336;2023-12-20T11:57:26;8.40;99.90
23520;DHT22;11936;50.820;4.336;2023-12-20T11:59:52;8.50;99.90
23520;DHT22;11936;50.820;4.336;2023-12-20T12:02:17;8.70;99.90
23520;DHT22;11936;50.820;4.336;2023-12-20T12:04:43;8.70;99.90
23520;DHT22;11936;50.820;4.336;2023-12-20T12:07:08;9.00;99.90
23520;DHT22;11936;50.820;4.336;2023-12-20T12:09:35;9.10;99.90
23520;DHT22;11936;50.820;4.336;2023-12-20T12:12:01;9.00;99.90
23520;DHT22;11936;50.820;4.336;2023-12-20T12:14:26;9.00;99.90
23520;DHT22;11936;50.820;4.336;2023-12-20T12:16:52;9.00;99.90
23520;DHT22;11936;50.820;4.336;2023-12-20T12:19:26;9.10;99.90
23520;DHT22;11936;50.820;4.336;2023-12-20T12:22:04;9.20;99.90
23520;DHT22;11936;50.820;4.336;2023-12-20T12:24:35;9.20;99.90
23520;DHT22;11936;50.820;4.336;2023-12-20T12:27:01;9.20;99.90
23520;DHT22;11936;50.820;4.336;2023-12-20T12:29:27;9.20;99.90
23520;DHT22;11936;50.820;4.336;2023-12-20T12:31:53;9.30;99.90
23520;DHT22;11936;50.820;4.336;2023-12-20T12:34:18;9.20;99.90
23520;DHT22;11936;50.820;4.336;2023-12-20T12:36:44;9.10;99.90
23520;DHT22;11936;50.820;4.336;2023-12-20T12:39:15;9.20;99.90
23520;DHT22;11936;50.820;4.336;2023-12-20T12:41:43;9.30;99.90
23520;DHT22;11936;50.820;4.336;2023-12-20T12:44:09;9.40;99.90
23520;DHT22;11936;50.820;4.336;2023-12-20T12:46:35;9.30;99.90
23520;DHT22;11936;50.820;4.336;2023-12-20T12:49:00;9.30;99.90
23520;DHT22;11936;50.820;4.336;2023-12-20T12:51:26;9.50;99.90
23520;DHT22;11936;50.820;4.336;2023-12-20T12:53:53;9.40;99.90
23520;DHT22;11936;50.820;4.336;2023-12-20T12:56:18;9.40;99.90
23520;DHT22;11936;50.820;4.336;2023-12-20T12:58:45;9.50;99.90
23520;DHT22;11936;50.820;4.336;2023-12-20T13:01:10;9.40;99.90
23520;DHT22;11936;50.820;4.336;2023-12-20T13:03:36;9.60;99.90
23520;DHT22;11936;50.820;4.336;2023-12-20T13:06:02;9.60;99.90
23520;DHT22;11936;50.820;4.336;2023-12-20T13:08:28;9.50;99.90
23520;DHT22;11936;50.820;4.336;2023-12-20T13:10:55;9.60;99.90
23520;DHT22;11936;50.820;4.336;2023-12-20T13:13:21;9.40;99.90
23520;DHT22;11936;50.820;4.336;2023-12-20T13:15:46;9.30;99.90
23520;DHT22;11936;50.820;4.336;2023-12-20T13:18:17;9.30;99.90
23520;DHT22;11936;50.820;4.336;2023-12-20T13:20:44;9.30;99.90
23520;DHT22;11936;50.820;4.336;2023-12-20T13:23:09;9.30;99.90
23520;DHT22;11936;50.820;4.336;2023-12-20T13:25:35;9.40;99.90
23520;DHT22;11936;50.820;4.336;2023-12-20T13:28:01;9.40;99.90
23520;DHT22;11936;50.820;4.336;2023-12-20T13:30:28;9.40;99.90
23520;DHT22;11936;50.820;4.336;2023-12-20T13:32:53;9.30;99.90
23520;DHT22;11936;50.820;4.336;2023-12-20T13:35:19;9.30;99.90
23520;DHT22;11936;50.820;4.336;2023-12-20T13:37:46;9.40;99.90
23520;DHT22;11936;50.820;4.336;2023-12-20T13:40:11;9.40;99.90
23520;DHT22;11936;50.820;4.336;2023-12-20T13:42:40;9.40;99.90
23520;DHT22;11936;50.820;4.336;2023-12-20T13:45:07;9.50;99.90
23520;DHT22;11936;50.820;4.336;2023-12-20T13:47:33;9.40;99.90
23520;DHT22;11936;50.820;4.336;2023-12-20T13:49:58;9.40;99.90
23520;DHT22;11936;50.820;4.336;2023-12-20T13:52:24;9.50;99.90
23520;DHT22;11936;50.820;4.336;2023-12-20T13:54:53;9.40;99.90
23520;DHT22;11936;50.820;4.336;2023-12-20T13:57:18;9.60;99.90
23520;DHT22;11936;50.820;4.336;2023-12-20T13:59:44;9.50;99.90
23520;DHT22;11936;50.820;4.336;2023-12-20T14:02:10;9.40;99.90
23520;DHT22;11936;50.820;4.336;2023-12-20T14:04:36;9.70;99.90
23520;DHT22;11936;50.820;4.336;2023-12-20T14:07:01;9.80;99.90
23520;DHT22;11936;50.820;4.336;2023-12-20T14:09:27;9.70;99.90
23520;DHT22;11936;50.820;4.336;2023-12-20T14:11:53;9.90;99.90
23520;DHT22;11936;50.820;4.336;2023-12-20T14:14:20;9.80;99.90
23520;DHT22;11936;50.820;4.336;2023-12-20T14:16:45;9.80;99.90
23520;DHT22;11936;50.820;4.336;2023-12-20T14:19:12;9.80;99.90
23520;DHT22;11936;50.820;4.336;2023-12-20T14:21:37;9.90;99.90
23520;DHT22;11936;50.820;4.336;2023-12-20T14:24:03;9.80;99.90
23520;DHT22;11936;50.820;4.336;2023-12-20T14:26:30;9.80;99.90
23520;DHT22;11936;50.820;4.336;2023-12-20T14:28:55;9.70;99.90
23520;DHT22;11936;50.820;4.336;2023-12-20T14:31:21;9.60;99.90
23520;DHT22;11936;50.820;4.336;2023-12-20T14:33:49;9.60;99.90
23520;DHT22;11936;50.820;4.336;2023-12-20T14:36:16;9.60;99.90
23520;DHT22;11936;50.820;4.336;2023-12-20T14:38:43;9.60;99.90
23520;DHT22;11936;50.820;4.336;2023-12-20T14:41:09;9.90;99.90
23520;DHT22;11936;50.820;4.336;2023-12-20T14:43:35;10.00;99.90
23520;DHT22;11936;50.820;4.336;2023-12-20T14:46:00;10.00;99.90
23520;DHT22;11936;50.820;4.336;2023-12-20T14:48:26;10.10;99.90
23520;DHT22;11936;50.820;4.336;2023-12-20T14:50:55;10.10;99.90
23520;DHT22;11936;50.820;4.336;2023-12-20T14:53:20;10.00;99.90
23520;DHT22;11936;50.820;4.336;2023-12-20T14:55:46;10.20;99.90
23520;DHT22;11936;50.820;4.336;2023-12-20T14:58:12;10.00;99.90
23520;DHT22;11936;50.820;4.336;2023-12-20T15:00:38;10.00;99.90
23520;DHT22;11936;50.820;4.336;2023-12-20T15:03:04;10.10;99.90
23520;DHT22;11936;50.820;4.336;2023-12-20T15:05:30;10.00;99.90
23520;DHT22;11936;50.820;4.336;2023-12-20T15:07:56;10.00;99.90
23520;DHT22;11936;50.820;4.336;2023-12-20T15:10:22;10.00;99.90
23520;DHT22;11936;50.820;4.336;2023-12-20T15:12:47;10.00;99.90
23520;DHT22;11936;50.820;4.336;2023-12-20T15:15:13;10.00;99.90
23520;DHT22;11936;50.820;4.336;2023-12-20T15:17:40;10.00;99.90
23520;DHT22;11936;50.820;4.336;2023-12-20T15:20:06;9.90;99.90
23520;DHT22;11936;50.820;4.336;2023-12-20T15:22:34;9.90;99.90
23520;DHT22;11936;50.820;4.336;2023-12-20T15:25:00;10.00;99.90
23520;DHT22;11936;50.820;4.336;2023-12-20T15:27:27;10.00;99.90
23520;DHT22;11936;50.820;4.336;2023-12-20T15:29:52;10.00;99.90
23520;DHT22;11936;50.820;4.336;2023-12-20T15:32:18;10.00;99.90
23520;DHT22;11936;50.820;4.336;2023-12-20T15:34:46;9.90;99.90
23520;DHT22;11936;50.820;4.336;2023-12-20T15:37:12;9.90;99.90
23520;DHT22;11936;50.820;4.336;2023-12-20T15:39:37;9.90;99.90
23520;DHT22;11936;50.820;4.336;2023-12-20T15:42:03;10.10;99.90
23520;DHT22;11936;50.820;4.336;2023-12-20T15:44:29;10.00;99.90
23520;DHT22;11936;50.820;4.336;2023-12-20T15:46:55;10.10;99.90